createdAt,value
2023-03-07T04:12:07.600Z,44.50
2023-03-07T04:14:36.264Z,44.20
2023-03-07T04:17:04.609Z,37.03
2023-03-07T04:19:33.161Z,45.00
2023-03-07T04:22:01.598Z,41.03
2023-03-07T04:24:30.439Z,41.17
2023-03-07T04:26:58.821Z,36.57
2023-03-07T04:29:30.514Z,40.87
2023-03-07T04:32:06.966Z,44.60
2023-03-07T04:34:35.462Z,39.67
2023-03-07T04:37:03.863Z,39.33
2023-03-07T04:39:32.169Z,42.60
2023-03-07T04:42:00.532Z,41.03
2023-03-07T04:44:36.185Z,42.40
2023-03-07T04:47:04.489Z,43.83
2023-03-07T04:49:35.795Z,40.60
2023-03-07T04:52:06.705Z,40.90
2023-03-07T04:54:35.576Z,41.30
2023-03-07T04:57:05.475Z,43.60
2023-03-07T04:59:41.705Z,41.07
2023-03-07T05:02:14.104Z,39.97
2023-03-07T05:04:45.019Z,43.63
2023-03-07T05:07:13.874Z,47.70
2023-03-07T05:09:42.400Z,47.83
2023-03-07T05:12:11.463Z,40.90
2023-03-07T05:14:41.604Z,41.23
2023-03-07T05:17:12.484Z,51.77
2023-03-07T05:19:41.078Z,51.67
2023-03-07T05:22:10.782Z,69.07
2023-03-07T05:24:39.482Z,72.60
2023-03-07T05:27:08.486Z,78.93
2023-03-07T05:29:36.882Z,77.60
2023-03-07T05:32:10.955Z,79.70
2023-03-07T05:34:40.462Z,81.37
2023-03-07T05:37:10.897Z,85.93
2023-03-07T05:39:39.634Z,94.90
2023-03-07T05:42:08.768Z,90.50
2023-03-07T05:44:38.831Z,91.40
2023-03-07T05:47:09.658Z,93.07
2023-03-07T05:49:38.824Z,86.23
2023-03-07T05:52:07.891Z,73.90
2023-03-07T05:54:36.560Z,84.80
2023-03-07T05:57:05.295Z,72.27
2023-03-07T05:59:33.764Z,79.30
2023-03-07T06:02:02.203Z,80.93
2023-03-07T06:04:32.090Z,84.67
2023-03-07T06:07:00.804Z,80.63
2023-03-07T06:09:29.410Z,82.03
2023-03-07T06:11:59.787Z,73.00
2023-03-07T06:14:28.101Z,79.40
2023-03-07T06:16:56.948Z,71.63
2023-03-07T06:19:25.835Z,70.47
2023-03-07T06:21:55.629Z,74.47
2023-03-07T06:24:23.907Z,72.83
2023-03-07T06:26:52.258Z,66.60
2023-03-07T06:29:23.546Z,69.00
2023-03-07T06:31:52.175Z,65.87
2023-03-07T06:34:20.569Z,65.67
2023-03-07T06:36:49.645Z,61.47
2023-03-07T06:39:21.325Z,61.83
2023-03-07T06:41:53.357Z,59.77
2023-03-07T06:44:21.734Z,60.13
2023-03-07T06:46:50.042Z,58.23
2023-03-07T06:49:21.291Z,57.33
2023-03-07T06:51:50.750Z,69.43
2023-03-07T06:54:20.727Z,61.23
2023-03-07T06:56:49.616Z,60.50
2023-03-07T06:59:21.875Z,60.27
2023-03-07T07:01:50.280Z,52.47
2023-03-07T07:04:20.795Z,53.27
2023-03-07T07:06:50.832Z,52.90
2023-03-07T07:09:20.938Z,52.03
2023-03-07T07:11:49.463Z,53.17
2023-03-07T07:14:17.947Z,50.70
2023-03-07T07:16:46.715Z,58.37
2023-03-07T07:19:15.219Z,53.40
2023-03-07T07:21:43.859Z,52.77
2023-03-07T07:24:14.212Z,49.80
2023-03-07T07:26:43.921Z,52.63
2023-03-07T07:29:12.507Z,54.47
2023-03-07T07:31:41.440Z,49.73
2023-03-07T07:34:10.060Z,50.27
2023-03-07T07:36:38.720Z,53.43
2023-03-07T07:39:07.966Z,52.13
2023-03-07T07:41:39.889Z,52.00
2023-03-07T07:44:09.746Z,46.77
2023-03-07T07:46:45.549Z,48.13
2023-03-07T07:49:13.916Z,49.70
2023-03-07T07:51:42.460Z,51.10
2023-03-07T07:54:10.745Z,47.00
2023-03-07T07:56:39.010Z,44.30
2023-03-07T07:59:07.230Z,43.23
2023-03-07T08:01:37.039Z,47.63
2023-03-07T08:04:05.369Z,40.97
2023-03-07T08:06:33.583Z,61.17
2023-03-07T08:09:01.972Z,49.43
2023-03-07T08:11:30.401Z,39.77
2023-03-07T08:13:58.715Z,41.33
2023-03-07T08:16:26.939Z,42.63
2023-03-07T08:18:57.921Z,39.53
2023-03-07T08:21:27.009Z,45.70
2023-03-07T08:23:56.194Z,44.77
2023-03-07T08:26:25.202Z,39.87
2023-03-07T08:28:53.534Z,40.13
2023-03-07T08:31:24.428Z,48.57
2023-03-07T08:33:53.637Z,40.90
2023-03-07T08:36:23.350Z,41.77
2023-03-07T08:38:52.804Z,39.23
2023-03-07T08:41:22.407Z,37.53
2023-03-07T08:43:50.737Z,36.37
2023-03-07T08:46:19.063Z,29.97
2023-03-07T08:48:47.485Z,31.40
2023-03-07T08:51:18.625Z,33.23
2023-03-07T08:53:48.985Z,41.93
2023-03-07T08:56:19.543Z,33.93
2023-03-07T08:58:48.255Z,29.17
2023-03-07T09:01:16.616Z,28.47
2023-03-07T09:03:44.873Z,32.50
2023-03-07T09:06:18.453Z,26.20
2023-03-07T09:08:48.481Z,28.30
2023-03-07T09:11:17.611Z,29.73
2023-03-07T09:13:52.549Z,35.83
2023-03-07T09:16:22.326Z,29.77
2023-03-07T09:18:51.083Z,31.20
2023-03-07T09:21:19.369Z,31.73
2023-03-07T09:23:49.093Z,35.07
2023-03-07T09:26:17.616Z,30.50
2023-03-07T09:28:45.893Z,29.93
2023-03-07T09:31:16.271Z,33.20
2023-03-07T09:33:46.655Z,33.10
2023-03-07T09:36:16.280Z,33.83
2023-03-07T09:38:44.629Z,32.53
2023-03-07T09:41:31.793Z,34.10
2023-03-07T09:44:08.222Z,30.93
2023-03-07T09:47:11.114Z,32.13
2023-03-07T09:49:46.330Z,35.10
2023-03-07T09:52:17.277Z,40.03
2023-03-07T09:54:51.256Z,43.87
2023-03-07T09:57:26.939Z,36.70
2023-03-07T09:59:59.753Z,38.27
2023-03-07T10:02:32.527Z,39.73
2023-03-07T10:05:05.599Z,38.97
2023-03-07T10:07:35.960Z,39.03
2023-03-07T10:10:08.212Z,37.10
2023-03-07T10:13:19.585Z,29.83
2023-03-07T10:15:51.077Z,38.13
2023-03-07T10:18:32.733Z,34.17
2023-03-07T10:21:08.787Z,33.23
2023-03-07T10:23:55.877Z,34.73
2023-03-07T10:26:30.649Z,33.87
2023-03-07T10:29:03.396Z,40.53
2023-03-07T10:31:35.407Z,35.73
2023-03-07T10:34:25.860Z,36.57
2023-03-07T10:37:09.088Z,36.90
2023-03-07T10:39:46.916Z,34.70
2023-03-07T10:42:23.725Z,37.97
2023-03-07T10:44:53.914Z,33.10
2023-03-07T10:47:25.246Z,38.67
2023-03-07T10:49:57.691Z,35.90
2023-03-07T10:52:35.205Z,40.33
2023-03-07T10:55:31.285Z,38.83
2023-03-07T10:58:14.660Z,37.27
2023-03-07T11:00:47.548Z,38.10
2023-03-07T11:03:28.959Z,37.47
2023-03-07T11:05:57.227Z,40.47
2023-03-07T11:08:31.776Z,38.60
2023-03-07T11:11:01.144Z,42.53
2023-03-07T11:13:30.175Z,44.87
2023-03-07T11:16:24.828Z,41.87
2023-03-07T11:18:55.583Z,40.93
2023-03-07T11:21:32.686Z,43.80
2023-03-07T11:24:03.356Z,38.73
2023-03-07T11:26:34.299Z,41.83
2023-03-07T11:29:10.550Z,39.57
2023-03-07T11:31:53.517Z,37.67
2023-03-07T11:34:33.103Z,39.53
2023-03-07T11:37:15.243Z,35.70
2023-03-07T11:39:50.686Z,38.67
2023-03-07T11:42:24.294Z,39.92
2023-03-07T11:44:54.962Z,51.05
2023-03-07T11:47:35.730Z,41.80
2023-03-07T11:50:16.891Z,38.35
2023-03-07T11:53:02.437Z,41.83
2023-03-07T11:55:39.298Z,45.45
2023-03-07T11:58:42.471Z,41.17
2023-03-07T12:01:22.053Z,42.25
2023-03-07T12:04:19.984Z,47.72
2023-03-07T12:07:00.870Z,39.92
2023-03-07T12:09:39.998Z,37.45
2023-03-07T12:12:22.896Z,35.67
2023-03-07T12:15:02.574Z,37.25
2023-03-07T12:17:42.756Z,37.85
2023-03-07T12:25:02.969Z,34.63
2023-03-07T12:27:38.040Z,36.20
2023-03-07T12:30:11.071Z,38.95
2023-03-07T12:32:39.753Z,35.03
2023-03-07T12:35:17.220Z,33.80
2023-03-07T12:37:50.276Z,36.75
2023-03-07T12:40:23.338Z,28.25
2023-03-07T12:42:57.600Z,31.83
2023-03-07T12:45:35.482Z,33.22
2023-03-07T12:48:10.120Z,32.95
2023-03-07T12:50:48.655Z,31.88
2023-03-07T12:53:22.660Z,35.00
2023-03-07T12:55:58.436Z,28.08
2023-03-07T12:58:43.707Z,28.80
2023-03-07T13:01:20.242Z,26.42
2023-03-07T13:03:57.904Z,26.75
2023-03-07T13:06:27.010Z,24.83
2023-03-07T13:08:59.182Z,26.95
2023-03-07T13:11:31.542Z,27.83
2023-03-07T13:14:00.538Z,25.38
2023-03-07T13:16:37.864Z,28.73
2023-03-07T13:19:44.293Z,25.83
2023-03-07T13:22:45.861Z,27.33
2023-03-07T13:25:43.343Z,24.05
2023-03-07T13:28:53.209Z,23.85
2023-03-07T13:31:43.061Z,20.73
2023-03-07T13:34:51.746Z,23.02
2023-03-07T13:37:58.150Z,24.63
2023-03-07T13:40:48.389Z,23.35
2023-03-07T13:43:56.493Z,24.83
2023-03-07T13:46:58.870Z,22.48
2023-03-07T13:49:48.220Z,23.88
2023-03-07T13:52:41.194Z,27.58
2023-03-07T13:55:26.374Z,23.42
2023-03-07T13:57:57.959Z,26.60
2023-03-07T14:00:33.197Z,24.17
2023-03-07T14:03:03.362Z,26.15
2023-03-07T14:05:35.385Z,25.58
2023-03-07T14:08:04.172Z,22.77
2023-03-07T14:10:33.492Z,23.70
2023-03-07T14:13:24.201Z,21.05
2023-03-07T14:16:31.115Z,26.33
2023-03-07T14:19:11.059Z,22.65
2023-03-07T14:21:51.875Z,23.50
2023-03-07T14:24:54.117Z,20.33
2023-03-07T14:27:22.544Z,18.67
2023-03-07T14:29:52.554Z,21.05
2023-03-07T14:32:27.964Z,20.65
2023-03-07T14:34:58.566Z,23.73
2023-03-07T14:37:29.084Z,19.08
2023-03-07T14:40:23.193Z,17.77
2023-03-07T14:42:58.085Z,22.70
2023-03-07T14:45:32.499Z,26.90
2023-03-07T14:48:32.573Z,19.05
2023-03-07T14:51:07.721Z,25.63
2023-03-07T14:53:36.374Z,22.08
2023-03-07T14:56:09.230Z,19.73
2023-03-07T14:58:46.755Z,19.67
2023-03-07T15:01:18.492Z,21.50
2023-03-07T15:03:48.736Z,24.30
2023-03-07T15:06:21.338Z,21.98
2023-03-07T15:08:52.282Z,17.13
2023-03-07T15:11:29.355Z,20.50
2023-03-07T15:14:02.335Z,18.52
2023-03-07T15:16:35.435Z,21.17
2023-03-07T15:19:10.209Z,18.42
2023-03-07T15:21:45.044Z,20.73
2023-03-07T15:24:19.495Z,20.55
2023-03-07T15:26:56.855Z,17.75
2023-03-07T15:29:27.037Z,19.33
2023-03-07T15:31:58.623Z,19.10
2023-03-07T15:34:28.999Z,19.75
2023-03-07T15:37:21.540Z,20.73
2023-03-07T15:39:57.751Z,18.98
2023-03-07T15:42:26.369Z,17.58
2023-03-07T15:44:56.054Z,19.90
2023-03-07T15:47:26.248Z,20.15
2023-03-07T15:49:57.647Z,24.02
2023-03-07T15:52:34.195Z,19.80
2023-03-07T15:55:05.701Z,17.80
2023-03-07T15:57:39.017Z,18.38
2023-03-07T16:00:17.569Z,18.10
2023-03-07T16:02:48.226Z,18.55
2023-03-07T16:05:38.045Z,18.77
2023-03-07T16:08:22.613Z,19.63
2023-03-07T16:10:56.798Z,16.48
2023-03-07T16:13:29.900Z,17.13
2023-03-07T16:16:09.301Z,16.55
2023-03-07T16:18:38.212Z,20.30
2023-03-07T16:21:07.051Z,19.17
2023-03-07T16:23:37.060Z,19.20
2023-03-07T16:26:06.668Z,23.67
2023-03-07T16:28:35.929Z,18.00
2023-03-07T16:31:04.744Z,20.50
2023-03-07T16:33:33.209Z,17.92
2023-03-07T16:36:01.961Z,24.57
2023-03-07T16:38:30.446Z,20.73
2023-03-07T16:41:01.937Z,21.70
2023-03-07T16:43:35.540Z,20.80
2023-03-07T16:46:07.054Z,20.20
2023-03-07T16:48:36.415Z,17.08
2023-03-07T16:51:06.733Z,20.27
2023-03-07T16:53:35.213Z,18.98
2023-03-07T16:56:13.004Z,23.92
2023-03-07T16:58:44.306Z,18.17
2023-03-07T17:01:15.186Z,21.63
2023-03-07T17:03:44.496Z,18.58
2023-03-07T17:06:16.679Z,22.35
2023-03-07T17:08:45.321Z,22.60
2023-03-07T17:11:20.446Z,23.08
2023-03-07T17:13:50.599Z,26.67
2023-03-07T17:16:19.975Z,24.00
2023-03-07T17:18:48.869Z,26.27
2023-03-07T17:21:19.822Z,21.53
2023-03-07T17:23:49.357Z,21.60
2023-03-07T17:26:26.923Z,24.98
2023-03-07T17:28:56.292Z,29.90
2023-03-07T17:31:24.881Z,29.60
2023-03-07T17:33:53.382Z,23.63
2023-03-07T17:36:24.139Z,26.17
2023-03-07T17:38:53.077Z,25.50
2023-03-07T17:41:24.225Z,26.55
2023-03-07T17:43:55.793Z,40.17
2023-03-07T17:46:26.212Z,37.17
2023-03-07T17:48:55.236Z,37.67
2023-03-07T17:51:23.946Z,34.90
2023-03-07T17:53:52.511Z,31.67
2023-03-07T17:56:25.527Z,26.40
2023-03-07T17:58:55.611Z,26.37
2023-03-07T18:01:24.214Z,22.17
2023-03-07T18:03:52.731Z,22.30
2023-03-07T18:06:21.127Z,26.03
2023-03-07T18:08:49.647Z,22.80
2023-03-07T18:11:18.397Z,25.00
2023-03-07T18:13:50.541Z,25.97
2023-03-07T18:16:19.152Z,25.90
2023-03-07T18:18:58.822Z,26.87
2023-03-07T18:21:29.936Z,30.63
2023-03-07T18:24:00.869Z,24.97
2023-03-07T18:26:29.618Z,32.30
2023-03-07T18:28:59.744Z,25.17
2023-03-07T18:31:29.320Z,27.70
2023-03-07T18:33:58.119Z,23.50
2023-03-07T18:36:27.729Z,22.63
2023-03-07T18:38:56.372Z,23.13
2023-03-07T18:41:26.280Z,21.27
2023-03-07T18:43:55.305Z,18.63
2023-03-07T18:46:27.131Z,21.07
2023-03-07T18:48:57.255Z,22.63
2023-03-07T18:51:27.028Z,24.43
2023-03-07T18:53:57.719Z,22.20
2023-03-07T18:56:26.965Z,23.53
2023-03-07T18:58:56.242Z,23.80
2023-03-07T19:01:28.697Z,24.20
2023-03-07T19:04:00.726Z,23.97
2023-03-07T19:06:34.081Z,19.70
2023-03-07T19:09:05.329Z,18.33
2023-03-07T19:11:36.295Z,20.00
2023-03-07T19:14:05.225Z,20.93
2023-03-07T19:16:35.254Z,17.03
2023-03-07T19:19:03.888Z,22.37
2023-03-07T19:21:32.736Z,20.90
2023-03-07T19:24:03.963Z,22.17
2023-03-07T19:26:32.644Z,17.63
2023-03-07T19:29:01.742Z,20.13
2023-03-07T19:31:32.733Z,21.03
2023-03-07T19:34:05.106Z,25.00
2023-03-07T19:36:35.362Z,20.03
2023-03-07T19:39:04.853Z,22.17
2023-03-07T19:41:33.658Z,20.10
2023-03-07T19:44:04.543Z,21.20
2023-03-07T19:46:33.346Z,21.33
2023-03-07T19:49:03.183Z,19.67
2023-03-07T19:51:31.646Z,17.63
2023-03-07T19:54:00.647Z,20.57
2023-03-07T19:56:32.261Z,19.43
2023-03-07T19:59:03.046Z,20.10
2023-03-07T20:01:31.676Z,20.80
2023-03-07T20:04:00.178Z,20.57
2023-03-07T20:06:32.144Z,23.17
2023-03-07T20:09:02.064Z,22.83
2023-03-07T20:11:31.745Z,20.37
2023-03-07T20:14:01.966Z,21.00
2023-03-07T20:16:33.614Z,20.00
2023-03-07T20:19:04.753Z,18.10
2023-03-07T20:21:34.909Z,22.73
2023-03-07T20:24:08.283Z,18.33
2023-03-07T20:26:38.300Z,26.00
2023-03-07T20:29:10.034Z,18.03
2023-03-07T20:31:39.424Z,19.70
2023-03-07T20:34:08.280Z,19.00
2023-03-07T20:36:39.398Z,19.87
2023-03-07T20:39:09.920Z,17.67
2023-03-07T20:41:38.237Z,20.83
2023-03-07T20:44:07.955Z,15.77
2023-03-07T20:46:38.396Z,18.77
2023-03-07T20:49:07.112Z,16.27
2023-03-07T20:51:37.952Z,15.90
2023-03-07T20:54:08.437Z,18.30
2023-03-07T20:56:38.671Z,15.33
2023-03-07T20:59:07.809Z,16.50
2023-03-07T21:01:36.626Z,15.57
2023-03-07T21:04:11.418Z,14.77
2023-03-07T21:06:42.922Z,16.93
2023-03-07T21:09:12.824Z,15.23
2023-03-07T21:11:46.311Z,18.97
2023-03-07T21:14:14.872Z,23.33
2023-03-07T21:16:44.263Z,16.30
2023-03-07T21:19:12.960Z,15.83
2023-03-07T21:21:43.897Z,14.07
2023-03-07T21:24:13.308Z,19.30
2023-03-07T21:26:41.791Z,16.77
2023-03-07T21:29:10.968Z,17.73
2023-03-07T21:31:39.835Z,14.27
2023-03-07T21:34:11.774Z,14.43
2023-03-07T21:36:40.498Z,14.17
2023-03-07T21:39:10.443Z,14.40
2023-03-07T21:41:39.239Z,14.80
2023-03-07T21:44:07.741Z,13.53
2023-03-07T21:46:36.238Z,14.57
2023-03-07T21:49:04.794Z,16.27
2023-03-07T21:51:33.658Z,13.27
2023-03-07T21:54:02.237Z,16.33
2023-03-07T21:56:32.134Z,14.00
2023-03-07T21:59:00.560Z,19.60
2023-03-07T22:01:30.283Z,13.73
2023-03-07T22:04:00.358Z,15.83
2023-03-07T22:06:29.637Z,11.83
2023-03-07T22:08:59.488Z,12.27
2023-03-07T22:11:28.004Z,14.50
2023-03-07T22:13:57.813Z,15.07
2023-03-07T22:16:26.696Z,16.23
2023-03-07T22:18:56.851Z,16.47
2023-03-07T22:21:26.717Z,13.10
2023-03-07T22:23:57.995Z,14.27
2023-03-07T22:26:26.926Z,16.80
2023-03-07T22:28:57.157Z,13.63
2023-03-07T22:31:28.806Z,12.20
2023-03-07T22:33:58.707Z,11.17
2023-03-07T22:36:29.220Z,7.03
2023-03-07T22:38:58.090Z,7.87
2023-03-07T22:41:27.133Z,6.17
2023-03-07T22:43:57.126Z,7.70
2023-03-07T22:46:25.671Z,7.07
2023-03-07T22:48:55.062Z,7.90
2023-03-07T22:51:24.905Z,8.87
2023-03-07T22:53:53.418Z,8.50
2023-03-07T22:56:24.271Z,8.10
2023-03-07T22:58:52.871Z,12.13
2023-03-07T23:01:24.318Z,8.43
2023-03-07T23:03:53.995Z,12.60
2023-03-07T23:06:23.258Z,17.47
